Aviation Digital Data Service (ADDS)

Output produced by TAFs form (0710 UTC 20 July 2018)
found at http://www.aviationweather.gov/adds/tafs/
 
METAR text: OKBK 200700Z 34019KT 6000 -BLDU SKC 41/07 Q0998 NOSIG
Conditions at: OKBK (KUWAIT INTL (MIL, KW) observed 0700 UTC 20 July 2018
Temperature: 41.0°C (106°F)
Dewpoint: 7.0°C (45°F) [RH = 13%]
Pressure (altimeter): 29.47 inches Hg (998.0 mb)
Winds: from the NNW (340 degrees) at 22 MPH (19 knots; 9.9 m/s)
Visibility: 4 miles (6 km)
Ceiling: at least 12,000 feet AGL
Clouds: clear skies
Weather: -BLDU  ( could not decipher "-BLDU")

Forecast for: OKBK (KUWAIT INTL (MIL, KW)
Text: TAF OKBK 200445Z 2006/2112 34015G25KT 7000 NSC
Forecast period: 0600 UTC 20 July 2018 to 1200 UTC 21 July 2018
Forecast type: FROM: standard forecast or significant change
Winds: from the NNW (340 degrees) at 17 MPH (15 knots; 7.8 m/s)
gusting to 29 MPH (25 knots; 13.0 m/s)
Visibility: 4 miles (7 km)
Clouds: not forecast
Weather: no significant weather forecast for this period
Text: TEMPO 2006/2015 2000 BLDU
Forecast period: 0600 to 1500 UTC 20 July 2018
Forecast type: TEMPORARY: The following changes expected for less than half the time period
Visibility: 1.24 miles (2.00 km)
Weather: BLDU  (blowing dust)